Time;durP1;ratioP1;P1;durP2;ratioP2;P2;SDS_P1;SDS_P2;PMS_P1;PMS_P2;Temp;Humidity;BMP_temperature;BMP_pressure;BME280_temperature;BME280_humidity;BME280_pressure;Samples;Min_cycle;Max_cycle;Signal;HPM_P1;HPM_P2
2021/12/15 00:01:56;;;;;;;142.05;55.60;;;;;;;0.21;100.00;101242.12;1701793;84;25724;-75
2021/12/15 00:04:22;;;;;;;149.72;56.10;;;;;;;0.22;100.00;101245.59;1702108;83;25410;-76
2021/12/15 00:06:48;;;;;;;148.35;54.77;;;;;;;0.21;100.00;101242.64;1702152;83;27500;-76
2021/12/15 00:09:15;;;;;;;133.87;54.67;;;;;;;0.18;100.00;101242.02;1702072;84;25660;-76
2021/12/15 00:11:45;;;;;;;145.10;57.27;;;;;;;0.21;100.00;101248.77;1702137;83;25421;-76
2021/12/15 00:14:16;;;;;;;135.75;55.15;;;;;;;0.22;100.00;101243.73;1702168;84;25701;-76
2021/12/15 00:16:45;;;;;;;144.17;55.20;;;;;;;0.25;100.00;101237.17;1702171;84;25646;-76
2021/12/15 00:19:12;;;;;;;162.95;56.88;;;;;;;0.25;100.00;101234.52;1702010;83;27513;-76
2021/12/15 00:21:39;;;;;;;136.62;56.70;;;;;;;0.28;100.00;101244.73;1702032;84;25577;-76
2021/12/15 00:24:08;;;;;;;147.32;58.02;;;;;;;0.29;100.00;101241.86;1702103;84;25643;-76
2021/12/15 00:26:36;;;;;;;141.53;56.17;;;;;;;0.32;100.00;101241.92;1674768;84;25696;-75
2021/12/15 00:29:06;;;;;;;139.62;55.03;;;;;;;0.34;100.00;101238.52;1702147;84;25498;-77
2021/12/15 00:31:35;;;;;;;152.95;56.75;;;;;;;0.35;100.00;101237.50;1702237;84;27329;-75
2021/12/15 00:34:04;;;;;;;148.22;56.90;;;;;;;0.39;100.00;101240.54;1702033;83;25674;-75
2021/12/15 00:36:31;;;;;;;157.50;58.35;;;;;;;0.40;100.00;101239.52;1702091;84;25596;-76
2021/12/15 00:38:58;;;;;;;140.80;54.65;;;;;;;0.42;100.00;101239.58;1702031;84;25628;-76
2021/12/15 00:41:24;;;;;;;143.90;57.13;;;;;;;0.44;100.00;101244.70;1702175;84;25468;-76
2021/12/15 00:43:51;;;;;;;140.35;55.12;;;;;;;0.45;100.00;101235.69;1702167;84;27322;-76
2021/12/15 00:46:18;;;;;;;139.97;54.00;;;;;;;0.49;100.00;101258.16;1701987;84;25613;-75
2021/12/15 00:48:45;;;;;;;150.03;57.40;;;;;;;0.51;100.00;101256.09;1702087;84;25450;-76
2021/12/15 00:51:11;;;;;;;142.93;57.05;;;;;;;0.51;100.00;101255.59;1702062;84;25736;-77
2021/12/15 00:53:38;;;;;;;143.72;55.60;;;;;;;0.57;100.00;101256.56;1702202;84;25630;-77
2021/12/15 00:56:05;;;;;;;140.57;56.00;;;;;;;0.59;100.00;101257.68;1702237;84;27325;-77
2021/12/15 00:58:32;;;;;;;159.25;55.78;;;;;;;0.60;100.00;101266.78;1702238;84;25566;-76
2021/12/15 01:01:01;;;;;;;149.40;56.28;;;;;;;0.62;100.00;101266.05;1674620;84;25597;-77
2021/12/15 01:03:30;;;;;;;149.18;57.10;;;;;;;0.65;100.00;101271.46;1702334;83;26273;-77
2021/12/15 01:06:05;;;;;;;141.47;56.50;;;;;;;0.67;100.00;101274.72;1702238;84;25551;-77
2021/12/15 01:08:33;;;;;;;139.82;55.15;;;;;;;0.68;100.00;101266.51;1701896;83;27424;-77
2021/12/15 01:11:14;;;;;;;137.45;55.25;;;;;;;0.71;100.00;101270.56;1702264;84;25735;-77
2021/12/15 01:22:01;;;;;;;148.80;55.38;;;;;;;0.77;100.00;101268.38;1702205;84;27952;-76
2021/12/15 01:24:27;;;;;;;143.55;56.25;;;;;;;0.77;100.00;101273.70;1673967;84;25580;-75
2021/12/15 01:26:54;;;;;;;145.20;56.53;;;;;;;0.77;100.00;101274.19;1702242;84;25607;-75
2021/12/15 01:29:21;;;;;;;141.80;54.40;;;;;;;0.77;100.00;101270.20;1702135;84;25628;-75
2021/12/15 01:31:47;;;;;;;140.37;56.02;;;;;;;0.78;100.00;101269.17;1702219;84;25651;-75
2021/12/15 01:34:14;;;;;;;149.10;56.90;;;;;;;0.79;100.00;101269.48;1673940;84;27229;-75
2021/12/15 01:36:41;;;;;;;143.13;56.45;;;;;;;0.80;100.00;101267.10;1702110;83;25470;-75
2021/12/15 01:39:08;;;;;;;141.97;54.00;;;;;;;0.81;100.00;101262.89;1702222;84;25599;-75
2021/12/15 01:41:34;;;;;;;148.17;55.38;;;;;;;0.83;100.00;101266.67;1702173;83;26176;-75
2021/12/15 01:46:56;;;;;;;137.95;56.18;;;;;;;0.84;100.00;101271.78;1704915;84;27438;-75
2021/12/15 01:49:39;;;;;;;137.95;53.58;;;;;;;0.84;100.00;101270.97;1702506;84;25545;-75
2021/12/15 01:52:17;;;;;;;139.25;55.33;;;;;;;0.83;99.98;101266.67;1702241;83;25438;-75
2021/12/15 01:55:01;;;;;;;131.60;51.95;;;;;;;0.81;99.85;101265.55;1702218;83;25642;-74
2021/12/15 01:57:33;;;;;;;146.20;53.85;;;;;;;0.84;99.98;101266.98;1699300;83;25220;-75
2021/12/15 02:00:07;;;;;;;127.10;50.17;;;;;;;0.85;100.00;101271.25;1674018;84;27219;-76
2021/12/15 02:02:34;;;;;;;135.28;50.10;;;;;;;0.86;100.00;101280.36;1702047;84;25782;-75
2021/12/15 02:05:01;;;;;;;138.77;53.40;;;;;;;0.87;100.00;101275.34;1702208;84;25474;-76
2021/12/15 02:07:28;;;;;;;129.95;52.27;;;;;;;0.87;100.00;101269.17;1701993;84;26212;-76
2021/12/15 02:12:32;;;;;;;139.25;53.35;;;;;;;0.90;100.00;101274.06;1702270;84;27403;-77
2021/12/15 02:14:57;;;;;;;140.35;56.53;;;;;;;0.91;100.00;101283.17;1701763;84;25490;-77
2021/12/15 02:17:24;;;;;;;137.55;55.30;;;;;;;0.92;100.00;101276.02;1702172;84;25416;-76
2021/12/15 02:19:50;;;;;;;137.22;56.30;;;;;;;0.92;100.00;101275.49;1706813;83;25746;-76
2021/12/15 02:22:17;;;;;;;133.15;55.12;;;;;;;0.96;100.00;101279.86;1699447;84;25668;-76
2021/12/15 02:24:48;;;;;;;126.02;50.80;;;;;;;0.99;100.00;101288.75;1699350;84;27876;-76
2021/12/15 02:27:14;;;;;;;133.73;51.30;;;;;;;1.02;100.00;101287.48;1673334;84;25818;-76
2021/12/15 02:29:45;;;;;;;133.50;55.28;;;;;;;1.05;100.00;101289.70;1696561;83;25627;-75
2021/12/15 02:37:05;;;;;;;133.05;51.77;;;;;;;1.10;100.00;101298.66;1699415;84;25639;-77
2021/12/15 02:37:26;;;;;;;130.32;53.15;;;;;;;1.13;100.00;101296.61;1698971;84;27372;-76
2021/12/15 02:40:05;;;;;;;122.37;52.38;;;;;;;1.16;100.00;101296.98;1699293;84;25592;-77
2021/12/15 02:42:36;;;;;;;137.43;53.02;;;;;;;1.18;100.00;101292.23;1699535;84;25490;-77
2021/12/15 02:45:08;;;;;;;135.37;50.00;;;;;;;1.22;100.00;101295.27;1699336;84;25696;-78
2021/12/15 02:47:35;;;;;;;127.87;49.75;;;;;;;1.22;100.00;101286.75;1699426;84;25412;-77
2021/12/15 02:50:06;;;;;;;118.57;46.33;;;;;;;1.24;100.00;101287.86;1699383;84;27408;-77
2021/12/15 02:52:35;;;;;;;109.80;44.80;;;;;;;1.25;100.00;101280.98;1699419;84;25539;-77
2021/12/15 02:55:04;;;;;;;130.97;48.80;;;;;;;1.28;100.00;101273.07;1699403;84;25468;-77
2021/12/15 02:57:31;;;;;;;132.47;50.52;;;;;;;1.28;100.00;101273.87;1699464;84;32837;-77
2021/12/15 03:00:03;;;;;;;119.10;50.23;;;;;;;1.29;100.00;101284.84;1699378;84;25448;-77
2021/12/15 03:05:25;;;;;;;102.85;42.95;;;;;;;1.31;100.00;101273.93;1699230;84;25479;-76
2021/12/15 03:08:08;;;;;;;100.50;41.80;;;;;;;1.33;100.00;101282.55;1698496;84;25579;-76
2021/12/15 03:16:03;;;;;;;112.35;43.02;;;;;;;1.38;100.00;101284.52;1699353;84;27508;-75
2021/12/15 03:18:30;;;;;;;125.00;47.10;;;;;;;1.39;100.00;101284.30;1699226;84;25764;-75
2021/12/15 03:21:05;;;;;;;106.35;45.00;;;;;;;1.41;100.00;101288.88;1700836;84;25482;-75
2021/12/15 03:23:49;;;;;;;111.72;43.73;;;;;;;1.42;100.00;101295.86;1702100;84;25625;-75
2021/12/15 03:26:12;;;;;;;102.80;40.52;;;;;;;1.42;100.00;101299.86;1701525;84;31357;-76
2021/12/15 03:34:15;;;;;;;140.25;51.45;;;;;;;1.48;100.00;101313.64;1697255;82;25631;-76
2021/12/15 03:39:24;;;;;;;133.85;48.87;;;;;;;1.53;100.00;101309.48;1719748;83;25445;-76
2021/12/15 03:41:59;;;;;;;128.78;48.80;;;;;;;1.54;100.00;101309.79;1719786;83;28000;-76
2021/12/15 03:44:21;;;;;;;121.45;47.03;;;;;;;1.53;100.00;101308.14;1718917;83;25570;-75
2021/12/15 03:46:48;;;;;;;112.80;42.33;;;;;;;1.53;100.00;101312.95;1693100;83;25721;-76
2021/12/15 03:49:15;;;;;;;105.60;42.33;;;;;;;1.55;100.00;101311.39;1693259;83;26379;-77
2021/12/15 03:51:42;;;;;;;113.25;42.90;;;;;;;1.57;100.00;101316.81;1719733;83;25697;-76
2021/12/15 03:54:09;;;;;;;112.72;43.05;;;;;;;1.59;100.00;101315.27;1719680;83;27920;-76
2021/12/15 03:56:36;;;;;;;107.35;39.42;;;;;;;1.63;100.00;101313.23;1719605;83;25636;-76
2021/12/15 03:59:04;;;;;;;94.72;38.67;;;;;;;1.66;100.00;101322.66;1719728;83;25611;-75
2021/12/15 04:01:31;;;;;;;102.53;39.20;;;;;;;1.68;100.00;101327.24;1719786;83;25626;-75
2021/12/15 04:03:58;;;;;;;101.90;39.20;;;;;;;1.71;100.00;101334.80;1719765;83;25553;-75
2021/12/15 04:06:33;;;;;;;100.27;39.23;;;;;;;1.74;100.00;101337.03;1719843;83;27380;-75
2021/12/15 04:09:00;;;;;;;89.28;36.30;;;;;;;1.77;100.00;101338.41;1722001;83;25503;-74
2021/12/15 04:11:33;;;;;;;92.00;35.88;;;;;;;1.79;100.00;101335.84;1722422;83;25149;-75
2021/12/15 04:14:00;;;;;;;92.85;36.45;;;;;;;1.81;100.00;101341.75;1722264;83;25815;-75
2021/12/15 04:19:02;;;;;;;91.17;35.88;;;;;;;1.86;100.00;101341.89;1722333;83;27365;-75
2021/12/15 04:21:30;;;;;;;95.00;36.28;;;;;;;1.89;100.00;101342.48;1719749;83;25453;-76
2021/12/15 04:23:59;;;;;;;85.62;34.18;;;;;;;1.91;100.00;101342.56;1719692;83;25576;-75
2021/12/15 04:26:27;;;;;;;89.70;34.90;;;;;;;1.92;100.00;101342.84;1693189;83;25677;-75
2021/12/15 04:28:56;;;;;;;86.02;34.30;;;;;;;1.94;100.00;101346.13;1693960;83;25585;-75
2021/12/15 04:31:26;;;;;;;85.90;35.13;;;;;;;1.97;100.00;101347.51;1719832;83;27335;-75
2021/12/15 04:34:07;;;;;;;82.90;32.67;;;;;;;1.99;100.00;101353.43;1695497;83;25796;-75
2021/12/15 04:36:38;;;;;;;86.92;35.28;;;;;;;2.01;100.00;101364.19;1719874;83;25659;-75
2021/12/15 04:39:09;;;;;;;87.27;33.53;;;;;;;2.02;100.00;101367.66;1719843;83;25554;-75
2021/12/15 04:41:36;;;;;;;78.92;36.70;;;;;;;2.03;100.00;101359.43;1694777;83;25559;-75
2021/12/15 04:44:12;;;;;;;84.03;34.63;;;;;;;2.04;100.00;101362.91;1722054;83;27062;-75
2021/12/15 04:46:43;;;;;;;86.15;34.75;;;;;;;2.08;100.00;101373.94;1693201;83;25580;-75
2021/12/15 04:49:13;;;;;;;85.55;35.98;;;;;;;2.09;100.00;101377.72;1719923;83;25208;-75
2021/12/15 04:51:40;;;;;;;82.67;36.03;;;;;;;2.11;100.00;101380.17;1693168;83;26305;-75
2021/12/15 04:54:07;;;;;;;83.50;35.08;;;;;;;2.10;100.00;101374.03;1719828;83;25391;-75
2021/12/15 04:56:34;;;;;;;77.03;34.85;;;;;;;2.12;100.00;101370.61;1719777;83;27337;-77
2021/12/15 04:59:01;;;;;;;84.58;36.75;;;;;;;2.13;100.00;101377.59;1719717;83;25633;-77
2021/12/15 05:01:27;;;;;;;84.83;36.53;;;;;;;2.15;100.00;101372.02;1719836;83;25556;-77
2021/12/15 05:03:55;;;;;;;85.25;35.83;;;;;;;2.16;100.00;101370.97;1719792;83;25617;-77
2021/12/15 05:06:23;;;;;;;83.22;35.40;;;;;;;2.16;100.00;101370.47;1719775;83;25563;-75
2021/12/15 05:08:50;;;;;;;83.27;34.92;;;;;;;2.17;100.00;101364.59;1719840;83;27322;-75
2021/12/15 05:11:17;;;;;;;74.35;31.07;;;;;;;2.17;100.00;101373.41;1719696;83;25636;-75
2021/12/15 05:13:44;;;;;;;74.62;32.50;;;;;;;2.17;100.00;101371.27;1719796;83;25575;-75
2021/12/15 05:16:11;;;;;;;76.22;31.57;;;;;;;2.17;100.00;101373.41;1719867;83;25621;-75
2021/12/15 05:18:37;;;;;;;67.72;28.92;;;;;;;2.16;100.00;101369.63;1719867;83;25639;-76
2021/12/15 05:21:06;;;;;;;73.87;31.30;;;;;;;2.16;100.00;101376.30;1722558;83;28204;-77
2021/12/15 05:23:33;;;;;;;79.60;31.70;;;;;;;2.17;100.00;101377.95;1727950;83;31653;-74
2021/12/15 05:26:00;;;;;;;74.67;32.38;;;;;;;2.17;100.00;101389.42;1727823;83;25550;-74
2021/12/15 05:28:27;;;;;;;72.50;30.82;;;;;;;2.17;100.00;101386.76;1727744;83;25629;-75
2021/12/15 05:30:56;;;;;;;70.22;30.92;;;;;;;2.17;100.00;101390.77;1727831;83;25411;-75
2021/12/15 05:33:24;;;;;;;74.32;31.52;;;;;;;2.18;100.00;101391.56;1727806;83;27395;-75
2021/12/15 05:35:53;;;;;;;75.03;32.90;;;;;;;2.19;100.00;101394.02;1727186;83;25465;-75
2021/12/15 05:38:21;;;;;;;75.03;31.23;;;;;;;2.19;100.00;101395.87;1727833;83;25390;-75
2021/12/15 05:40:47;;;;;;;71.75;29.77;;;;;;;2.19;100.00;101390.02;1727724;83;25701;-75
2021/12/15 05:43:14;;;;;;;75.67;30.88;;;;;;;2.19;100.00;101401.22;1727772;83;25506;-75
2021/12/15 05:45:42;;;;;;;64.07;29.63;;;;;;;2.21;100.00;101408.48;1727760;83;27339;-75
2021/12/15 05:48:13;;;;;;;71.53;30.10;;;;;;;2.20;100.00;101411.67;1727690;83;25636;-75
2021/12/15 05:50:42;;;;;;;62.40;29.20;;;;;;;2.20;100.00;101403.66;1727777;83;25560;-76
2021/12/15 05:53:09;;;;;;;64.50;29.15;;;;;;;2.21;100.00;101408.48;1727754;83;25621;-76
2021/12/15 05:55:37;;;;;;;67.78;30.02;;;;;;;2.20;100.00;101408.20;1727828;83;25519;-77
2021/12/15 05:58:04;;;;;;;68.22;28.98;;;;;;;2.21;100.00;101407.14;1727737;83;27421;-76
2021/12/15 06:00:35;;;;;;;61.65;28.55;;;;;;;2.22;100.00;101411.45;1727743;83;25444;-76
2021/12/15 06:03:04;;;;;;;64.95;28.17;;;;;;;2.20;100.00;101415.67;1727951;83;25445;-77
2021/12/15 06:05:32;;;;;;;74.37;30.65;;;;;;;2.22;100.00;101416.26;1728029;83;25754;-76
2021/12/15 06:08:00;;;;;;;72.80;31.48;;;;;;;2.22;100.00;101418.12;1727817;83;25647;-76
2021/12/15 06:10:29;;;;;;;72.30;31.20;;;;;;;2.23;100.00;101423.73;1727746;83;27472;-77
2021/12/15 06:12:58;;;;;;;;;;;;;;;2.23;100.00;101435.26;1730222;83;25449;-76
2021/12/15 06:15:28;;;;;;;93.50;34.95;;;;;;;2.26;100.00;101430.50;1702988;83;25524;-77
2021/12/15 06:18:05;;;;;;;76.70;33.80;;;;;;;2.27;100.00;101426.80;1727737;83;26196;-76
2021/12/15 06:20:34;;;;;;;70.80;30.62;;;;;;;2.29;100.00;101427.38;1727699;83;25579;-75
2021/12/15 06:23:05;;;;;;;67.97;29.15;;;;;;;2.29;100.00;101436.20;1727762;83;27334;-75
2021/12/15 06:25:29;;;;;;;64.65;28.67;;;;;;;2.31;100.00;101434.64;1727396;83;25617;-77
2021/12/15 06:27:56;;;;;;;69.37;29.02;;;;;;;2.31;100.00;101427.44;1727818;83;25440;-76
2021/12/15 06:30:23;;;;;;;63.00;30.43;;;;;;;2.30;100.00;101425.83;1702718;83;25614;-77
2021/12/15 06:32:50;;;;;;;63.45;30.25;;;;;;;2.29;100.00;101426.05;1727759;83;25579;-76
2021/12/15 06:35:17;;;;;;;76.33;34.65;;;;;;;2.27;99.93;101417.45;1727748;83;27346;-76
2021/12/15 06:37:44;;;;;;;90.92;40.55;;;;;;;2.23;99.83;101416.56;1727668;83;25619;-76
2021/12/15 06:40:12;;;;;;;96.22;44.58;;;;;;;2.22;99.91;101426.94;1727532;83;25559;-77
2021/12/15 06:42:42;;;;;;;90.03;40.90;;;;;;;2.22;100.00;101432.28;1727715;83;25632;-77
2021/12/15 06:45:13;;;;;;;84.65;39.25;;;;;;;2.21;100.00;101440.02;1727896;83;25627;-77
2021/12/15 06:58:25;;;;;;;85.12;37.75;;;;;;;2.20;100.00;101461.06;1634002;87;25632;-77
2021/12/15 07:00:56;;;;;;;79.37;35.60;;;;;;;2.21;100.00;101465.88;1633966;87;27440;-76
2021/12/15 07:03:24;;;;;;;81.17;37.15;;;;;;;2.20;100.00;101466.40;1633886;87;25685;-76
2021/12/15 07:05:55;;;;;;;81.47;36.10;;;;;;;2.21;100.00;101472.05;1615134;88;25584;-77
2021/12/15 07:08:24;;;;;;;83.17;34.70;;;;;;;2.21;100.00;101478.72;1633926;87;26243;-77
2021/12/15 07:10:53;;;;;;;83.92;35.17;;;;;;;2.21;100.00;101476.55;1594003;88;25701;-78
2021/12/15 07:13:21;;;;;;;80.07;35.98;;;;;;;2.22;100.00;101473.66;1634052;87;27338;-78
2021/12/15 07:15:59;;;;;;;76.00;34.50;;;;;;;2.23;100.00;101481.14;1614957;88;25581;-77
2021/12/15 07:18:26;;;;;;;84.62;37.38;;;;;;;2.22;100.00;101480.33;1633971;86;25673;-75
2021/12/15 07:20:51;;;;;;;82.50;35.40;;;;;;;2.24;100.00;101482.78;1615013;87;25642;-75
2021/12/15 07:23:22;;;;;;;81.90;36.23;;;;;;;2.23;100.00;101481.98;1630545;88;25551;-76
2021/12/15 07:25:51;;;;;;;78.50;35.52;;;;;;;2.24;100.00;101484.92;1615533;88;28128;-76
2021/12/15 07:28:19;;;;;;;;;;;;;;;2.27;100.00;101490.35;1708038;83;25670;-77
2021/12/15 07:30:47;;;;;;;72.62;34.38;;;;;;;2.27;100.00;101483.67;1723976;83;25594;-77
2021/12/15 07:33:14;;;;;;;75.15;34.05;;;;;;;2.29;100.00;101486.93;1695894;83;25725;-78
2021/12/15 07:35:41;;;;;;;79.07;35.10;;;;;;;2.31;100.00;101489.38;1719722;83;25735;-77
2021/12/15 07:38:09;;;;;;;73.30;34.00;;;;;;;2.33;100.00;101482.76;1720017;83;27349;-77
2021/12/15 07:40:37;;;;;;;73.70;32.08;;;;;;;2.33;100.00;101476.08;1719963;83;25760;-77
2021/12/15 07:43:23;;;;;;;76.80;33.17;;;;;;;2.37;100.00;101484.48;1722336;82;25200;-80
2021/12/15 07:45:45;;;;;;;72.70;35.78;;;;;;;2.38;100.00;101486.09;1718938;82;25736;-78
2021/12/15 07:48:16;;;;;;;81.05;33.42;;;;;;;2.39;100.00;101485.88;1720128;83;25400;-77
2021/12/15 07:50:47;;;;;;;72.75;32.13;;;;;;;2.39;100.00;101472.53;1720143;83;27341;-77
2021/12/15 07:53:16;;;;;;;72.72;33.38;;;;;;;2.39;100.00;101485.08;1720005;83;25696;-78
2021/12/15 07:55:43;;;;;;;68.62;31.27;;;;;;;2.40;100.00;101476.00;1696193;83;25472;-77
2021/12/15 07:58:11;;;;;;;74.62;32.03;;;;;;;2.41;100.00;101470.44;1720112;83;25657;-77
2021/12/15 08:00:42;;;;;;;73.85;32.30;;;;;;;2.42;100.00;101470.75;1720118;83;25407;-77
2021/12/15 08:03:09;;;;;;;78.62;35.58;;;;;;;2.43;100.00;101476.39;1720251;83;27459;-77
2021/12/15 08:05:39;;;;;;;72.97;33.90;;;;;;;2.43;100.00;101484.91;1720265;83;25558;-77
2021/12/15 08:08:06;;;;;;;74.47;32.00;;;;;;;2.46;100.00;101494.34;1720406;83;25196;-77
2021/12/15 08:10:34;;;;;;;63.58;30.90;;;;;;;2.49;100.00;101501.91;1720114;83;25613;-77
2021/12/15 08:13:01;;;;;;;73.37;32.53;;;;;;;2.53;100.00;101500.41;1720166;83;25492;-77
2021/12/15 08:15:28;;;;;;;67.82;31.93;;;;;;;2.56;100.00;101503.44;1720129;82;27337;-76
2021/12/15 08:17:55;;;;;;;70.57;31.27;;;;;;;2.59;100.00;101500.31;1720055;83;25613;-76
2021/12/15 08:20:26;;;;;;;65.30;30.50;;;;;;;2.65;100.00;101494.58;1695772;83;25591;-77
2021/12/15 08:22:53;;;;;;;69.62;32.17;;;;;;;2.72;100.00;101501.17;1706616;83;26141;-76
2021/12/15 08:25:22;;;;;;;66.92;31.73;;;;;;;2.77;100.00;101503.98;1703184;84;25403;-75
2021/12/15 08:27:52;;;;;;;68.67;31.65;;;;;;;2.83;100.00;101511.60;1674344;83;27932;-75
2021/12/15 08:30:23;;;;;;;77.20;33.58;;;;;;;2.91;100.00;101513.45;1702329;84;25659;-76
2021/12/15 08:32:55;;;;;;;75.10;33.98;;;;;;;3.00;100.00;101519.29;1702327;83;25692;-76
2021/12/15 08:35:29;;;;;;;81.90;39.00;;;;;;;3.08;100.00;101510.95;1702368;84;25661;-76
2021/12/15 08:37:57;;;;;;;69.42;33.20;;;;;;;3.18;100.00;101521.06;1702412;84;25433;-77
2021/12/15 08:40:26;;;;;;;66.15;30.65;;;;;;;3.25;100.00;101519.62;1702443;83;27350;-78
2021/12/15 08:42:54;;;;;;;59.08;29.25;;;;;;;3.27;100.00;101522.38;1702595;84;25724;-79
2021/12/15 08:45:23;;;;;;;63.13;29.67;;;;;;;3.35;100.00;101519.38;1702342;84;25606;-77
2021/12/15 08:47:51;;;;;;;62.13;27.62;;;;;;;3.36;100.00;101522.32;1675136;84;25866;-78
2021/12/15 08:50:23;;;;;;;58.73;29.75;;;;;;;3.37;100.00;101529.81;1702324;84;25572;-76
2021/12/15 08:52:49;;;;;;;60.67;27.65;;;;;;;3.40;100.00;101530.70;1702317;83;29464;-75
2021/12/15 08:55:17;;;;;;;58.15;28.90;;;;;;;3.44;100.00;101525.70;1703085;84;25227;-76
2021/12/15 08:57:48;;;;;;;55.52;25.60;;;;;;;3.42;100.00;101529.13;1702338;84;25530;-76
2021/12/15 09:00:13;;;;;;;59.65;28.73;;;;;;;3.42;100.00;101521.11;1701558;84;26315;-76
2021/12/15 09:02:40;;;;;;;56.83;27.00;;;;;;;3.42;99.96;101527.27;1674859;84;25497;-76
2021/12/15 09:05:08;;;;;;;62.03;27.58;;;;;;;3.42;100.00;101517.09;1702306;84;28017;-75
2021/12/15 09:07:34;;;;;;;62.45;28.23;;;;;;;3.45;100.00;101509.95;1702119;84;25628;-76
2021/12/15 09:10:01;;;;;;;55.10;26.93;;;;;;;3.47;100.00;101515.34;1702250;84;25440;-76
2021/12/15 09:12:27;;;;;;;57.60;26.20;;;;;;;3.48;99.90;101506.29;1702180;84;25686;-77
2021/12/15 09:14:54;;;;;;;58.33;28.15;;;;;;;3.47;99.81;101501.97;1702275;84;25584;-75
2021/12/15 09:17:21;;;;;;;62.48;28.42;;;;;;;3.47;99.79;101499.30;1702267;84;27330;-76
2021/12/15 09:19:48;;;;;;;61.10;28.47;;;;;;;3.49;99.88;101509.27;1702116;83;25717;-76
2021/12/15 09:22:15;;;;;;;58.40;29.85;;;;;;;3.52;100.00;101510.14;1708490;83;25505;-76
2021/12/15 09:24:42;;;;;;;66.37;30.95;;;;;;;3.50;99.78;101508.20;1720732;83;25659;-76
2021/12/15 09:27:08;;;;;;;69.95;30.90;;;;;;;3.51;99.73;101503.16;1720072;83;25589;-75
2021/12/15 09:29:35;;;;;;;68.42;31.93;;;;;;;3.47;99.58;101507.32;1720034;83;27362;-75
2021/12/15 09:32:02;;;;;;;69.05;32.33;;;;;;;3.46;99.73;101496.88;1719932;83;25543;-76
2021/12/15 09:34:30;;;;;;;67.97;32.53;;;;;;;3.46;99.49;101502.23;1720056;83;25557;-74
2021/12/15 09:36:58;;;;;;;71.33;31.55;;;;;;;3.45;99.64;101501.39;1720130;83;25637;-75
2021/12/15 09:39:26;;;;;;;64.00;31.02;;;;;;;3.43;99.51;101494.13;1695165;83;25662;-75
2021/12/15 09:41:53;;;;;;;61.55;31.73;;;;;;;3.38;99.28;101496.69;1720111;83;27413;-76
2021/12/15 09:44:23;;;;;;;66.00;32.35;;;;;;;3.35;99.31;101492.62;1719987;83;25760;-74
2021/12/15 09:47:13;;;;;;;63.38;29.52;;;;;;;3.35;99.63;101501.98;1719992;83;25493;-76
2021/12/15 10:03:48;;;;;;;69.50;31.95;;;;;;;3.20;99.50;101483.40;1720241;83;25633;-76
2021/12/15 10:06:22;;;;;;;78.83;32.63;;;;;;;3.19;99.59;101485.27;1717837;82;25729;-75
2021/12/15 10:19:51;;;;;;;69.30;32.13;;;;;;;3.11;99.73;101469.03;1720308;83;25410;-75
2021/12/15 10:22:41;;;;;;;70.57;31.48;;;;;;;3.05;99.61;101464.62;1720175;83;27398;-76
2021/12/15 10:25:26;;;;;;;74.12;30.15;;;;;;;3.03;99.79;101464.54;1721039;82;25344;-76
2021/12/15 10:28:07;;;;;;;68.60;28.20;;;;;;;3.04;100.00;101471.53;1720049;83;25547;-73
2021/12/15 10:30:42;;;;;;;63.00;28.62;;;;;;;3.02;100.00;101454.91;1695427;83;25451;-74
2021/12/15 10:33:25;;;;;;;65.70;26.68;;;;;;;3.03;100.00;101457.36;1720207;83;25671;-75
2021/12/15 10:36:01;;;;;;;71.28;26.73;;;;;;;3.06;100.00;101461.41;1720105;83;27342;-75
2021/12/15 10:38:40;;;;;;;74.70;29.32;;;;;;;3.09;100.00;101455.61;1720033;83;25637;-76
2021/12/15 10:41:13;;;;;;;66.53;27.52;;;;;;;3.11;100.00;101467.69;1719364;82;25576;-76
2021/12/15 10:43:47;;;;;;;60.52;26.60;;;;;;;3.15;100.00;101466.20;1705634;83;25640;-77
2021/12/15 10:46:25;;;;;;;60.33;26.75;;;;;;;3.16;100.00;101464.34;1720212;83;25231;-75
2021/12/15 10:49:03;;;;;;;61.23;28.20;;;;;;;3.18;100.00;101458.23;1720067;83;27334;-74
2021/12/15 10:51:53;;;;;;;62.35;25.92;;;;;;;3.21;100.00;101455.09;1719768;82;25457;-74
2021/12/15 10:54:25;;;;;;;66.82;27.55;;;;;;;3.24;100.00;101461.86;1722405;83;25610;-74
2021/12/15 10:57:17;;;;;;;72.03;28.10;;;;;;;3.25;100.00;101456.78;1720545;83;25613;-75
2021/12/15 10:59:53;;;;;;;68.22;28.77;;;;;;;3.25;100.00;101456.28;1720080;83;25641;-75
2021/12/15 11:02:28;;;;;;;63.40;26.90;;;;;;;3.28;100.00;101456.33;1720128;83;27348;-74
2021/12/15 11:05:15;;;;;;;71.17;28.32;;;;;;;3.28;100.00;101459.81;1719976;83;25572;-75
2021/12/15 11:07:50;;;;;;;64.90;28.32;;;;;;;3.29;100.00;101461.98;1719814;80;25406;-75
2021/12/15 11:10:28;;;;;;;71.92;29.63;;;;;;;3.28;100.00;101453.66;1719989;83;25633;-75
2021/12/15 11:13:03;;;;;;;68.52;28.83;;;;;;;3.30;100.00;101448.88;1720044;83;25436;-73
2021/12/15 11:15:46;;;;;;;71.22;28.55;;;;;;;3.32;100.00;101442.77;1720102;83;27363;-73
2021/12/15 11:18:24;;;;;;;70.95;29.65;;;;;;;3.35;100.00;101443.15;1719517;82;25498;-74
2021/12/15 11:20:55;;;;;;;67.42;29.77;;;;;;;3.40;100.00;101438.95;1695539;82;25654;-73
2021/12/15 11:23:28;;;;;;;66.87;29.00;;;;;;;3.39;100.00;101439.48;1710309;83;26221;-73
2021/12/15 11:25:59;;;;;;;74.25;30.92;;;;;;;3.41;100.00;101443.27;1692823;83;25558;-73
2021/12/15 11:28:42;;;;;;;65.15;29.37;;;;;;;3.44;100.00;101440.94;1716407;83;27338;-73
2021/12/15 11:31:23;;;;;;;64.53;28.35;;;;;;;3.46;100.00;101438.03;1716368;83;25518;-74
2021/12/15 11:33:55;;;;;;;68.55;27.65;;;;;;;3.49;100.00;101437.54;1692337;83;25462;-74
2021/12/15 11:36:32;;;;;;;69.45;29.40;;;;;;;3.48;100.00;101435.93;1692322;83;25607;-76
2021/12/15 11:39:12;;;;;;;64.90;29.80;;;;;;;3.49;100.00;101430.85;1712315;83;25477;-74
2021/12/15 11:41:46;;;;;;;68.30;27.22;;;;;;;3.48;100.00;101433.26;1692393;83;28116;-74
2021/12/15 11:44:25;;;;;;;68.97;28.85;;;;;;;3.50;100.00;101433.30;1716378;83;25553;-75
2021/12/15 11:46:58;;;;;;;;;;;;;;;3.52;100.00;101435.73;1718996;83;25655;-77
2021/12/15 11:49:32;;;;;;;69.32;27.80;;;;;;;3.52;100.00;101431.73;1716426;83;25848;-75
2021/12/15 11:52:07;;;;;;;69.12;28.27;;;;;;;3.52;100.00;101425.88;1716514;83;25635;-76
2021/12/15 11:54:42;;;;;;;71.70;29.45;;;;;;;3.52;100.00;101422.36;1716621;83;27012;-74
2021/12/15 11:57:19;;;;;;;73.90;31.02;;;;;;;3.53;100.00;101424.00;1716464;83;25690;-75
2021/12/15 11:59:50;;;;;;;66.80;28.75;;;;;;;3.52;100.00;101425.04;1716419;83;25743;-75
2021/12/15 12:02:35;;;;;;;71.05;29.85;;;;;;;3.53;100.00;101430.69;1692166;83;25720;-74
2021/12/15 12:05:13;;;;;;;64.65;26.68;;;;;;;3.53;100.00;101430.69;1702163;84;25436;-74
2021/12/15 12:07:53;;;;;;;59.77;27.58;;;;;;;3.55;100.00;101444.64;1700699;84;27376;-73
2021/12/15 12:10:32;;;;;;;45.95;21.15;;;;;;;3.57;100.00;101444.41;1702054;83;25509;-72
2021/12/15 12:13:12;;;;;;;61.95;28.00;;;;;;;3.59;100.00;101441.78;1702174;83;25648;-74
2021/12/15 12:15:44;;;;;;;71.27;28.63;;;;;;;3.61;100.00;101447.73;1673890;84;26133;-71
2021/12/15 12:18:15;;;;;;;69.62;29.63;;;;;;;3.61;100.00;101437.53;1702161;84;25641;-72
2021/12/15 12:20:46;;;;;;;64.07;27.90;;;;;;;3.60;100.00;101439.41;1702101;84;27407;-71
2021/12/15 12:23:21;;;;;;;74.50;29.87;;;;;;;3.61;100.00;101441.55;1701927;84;25569;-71
2021/12/15 12:25:51;;;;;;;66.97;29.10;;;;;;;3.63;100.00;101436.80;1702152;84;25618;-72
2021/12/15 12:28:29;;;;;;;75.92;29.82;;;;;;;3.63;100.00;101437.61;1702092;84;25640;-71
2021/12/15 12:31:03;;;;;;;70.75;27.58;;;;;;;3.62;100.00;101427.13;1702137;83;25654;-71
2021/12/15 12:33:31;;;;;;;71.40;28.17;;;;;;;3.64;100.00;101428.52;1701554;83;27355;-72
2021/12/15 12:36:09;;;;;;;71.20;29.25;;;;;;;3.63;100.00;101421.55;1701989;84;25734;-72